createdAt,value
2018-11-13T00:13:42.838Z,95.80
2018-11-13T00:33:37.628Z,89.50
2018-11-13T00:53:25.273Z,106.32
2018-11-13T01:13:21.627Z,88.55
2018-11-13T01:33:03.324Z,83.70
2018-11-13T01:52:59.777Z,91.65
2018-11-13T02:12:54.989Z,64.95
2018-11-13T02:32:50.217Z,77.42
2018-11-13T02:52:45.308Z,78.92
2018-11-13T03:12:37.080Z,93.62
2018-11-13T03:32:25.808Z,86.67
2018-11-13T03:52:20.029Z,86.55
2018-11-13T04:12:13.375Z,81.28
2018-11-13T04:28:28.873Z,82.40
2018-11-13T04:48:18.934Z,81.65
2018-11-13T05:08:11.527Z,85.42
2018-11-13T05:28:03.883Z,81.30
2018-11-13T05:47:56.458Z,72.30
2018-11-13T06:07:37.083Z,86.90
2018-11-13T06:27:16.712Z,68.42
2018-11-13T06:47:04.209Z,69.05
2018-11-13T07:06:53.262Z,77.12
2018-11-13T07:26:42.927Z,92.70
2018-11-13T07:46:34.902Z,103.70
2018-11-13T08:06:13.506Z,88.37
2018-11-13T08:26:08.350Z,82.60
2018-11-13T08:46:04.181Z,71.17
2018-11-13T09:05:45.281Z,64.10
2018-11-13T09:25:30.576Z,70.97
2018-11-13T09:45:16.060Z,54.83
2018-11-13T10:05:04.955Z,41.02
2018-11-13T10:24:49.815Z,34.47
2018-11-13T10:44:34.524Z,33.75
2018-11-13T11:04:23.347Z,31.27
2018-11-13T11:24:03.470Z,27.60
2018-11-13T11:43:58.840Z,24.60
2018-11-13T12:03:37.060Z,25.92
2018-11-13T12:23:16.168Z,26.50
2018-11-13T12:43:03.323Z,25.65
2018-11-13T13:02:52.740Z,25.10
2018-11-13T13:22:45.541Z,24.85
2018-11-13T13:42:39.396Z,24.10
2018-11-13T14:02:34.247Z,25.30
2018-11-13T14:22:24.957Z,25.97
2018-11-13T14:42:19.814Z,30.88
2018-11-13T15:02:00.564Z,34.60
2018-11-13T15:21:54.347Z,34.15
2018-11-13T15:41:40.073Z,42.75
2018-11-13T16:01:25.141Z,33.50
2018-11-13T16:21:12.572Z,37.58
2018-11-13T16:41:00.208Z,41.15
2018-11-13T17:00:45.478Z,53.42
2018-11-13T17:20:36.874Z,53.17
2018-11-13T17:40:28.699Z,53.05
2018-11-13T18:00:28.440Z,56.90
2018-11-13T18:20:25.376Z,61.35
2018-11-13T18:40:13.194Z,75.15
2018-11-13T19:00:03.827Z,78.17
2018-11-13T19:19:58.998Z,74.03
2018-11-13T19:39:51.634Z,64.85
2018-11-13T19:59:35.293Z,65.80
2018-11-13T20:19:20.053Z,64.15
2018-11-13T20:39:14.833Z,64.90
2018-11-13T20:59:07.624Z,62.33
2018-11-13T21:19:02.382Z,52.85
2018-11-13T21:38:43.076Z,102.90
2018-11-13T21:58:30.967Z,93.20
2018-11-13T22:18:26.813Z,90.92
2018-11-13T22:38:13.426Z,90.75
2018-11-13T22:58:04.214Z,75.47
2018-11-13T23:17:57.136Z,86.63
2018-11-13T23:37:48.334Z,81.95
2018-11-13T23:57:41.763Z,96.78
